Latest Weather Observations for Cape Jaffa

IDS60801

Issued at 8:35 pm CDT Sunday 23 November 2014 (issued every 30 minutes, with the page automatically refreshed every 10 minutes)

About weather observations | Map of weather stations | Latest weather observations for SA | Other Formats
Station Details ID: 026095 Name: THE LIMESTONE Lat: -36.97 Lon: 139.72 Height: 17.0 m
Data from the previous 72 hours. | See also: Recent months at Cape Jaffa
Date/Time
CDT
Temp
°C
App
Temp
°C
Dew
Point
Rel
Hum
%
Delta-T
°C
Wind Press
QNH
hPa
Press
MSL
hPa
Rain
since 9 am
mm
Dir
 
Spd
km/h
Gust
km/h
Spd
kts
Gust
kts
23/08:30pm 16.7 15.0 12.3 75 2.4 S 13 17 7 9 1011.2 1011.1 0.0
23/08:00pm 17.2 15.5 12.3 73 2.7 S 13 17 7 9 1010.9 1010.8 0.0
23/07:30pm 17.5 16.9 12.2 71 2.9 S 7 11 4 6 1011.2 1011.1 0.0
23/07:00pm 17.4 16.4 12.3 72 2.8 S 9 13 5 7 1011.3 1011.2 0.0
23/06:30pm 17.5 16.7 12.8 74 2.6 SW 9 15 5 8 1011.5 1011.4 0.0
23/06:00pm 17.8 15.7 12.5 71 2.9 W 15 19 8 10 1012.6 1012.5 0.0
23/05:30pm 18.2 16.8 12.2 68 3.3 WSW 11 13 6 7 1012.0 1011.9 0.0
23/05:00pm 18.9 17.0 11.9 64 3.9 WSW 13 19 7 10 1011.5 1011.4 0.0
23/04:30pm 18.7 17.8 11.5 63 3.9 SW 7 11 4 6 1011.3 1011.2 0.0
23/04:00pm 19.9 18.5 10.9 56 4.9 SW 9 11 5 6 1011.1 1011.0 0.0
23/03:30pm 20.2 18.5 11.1 56 5.0 W 11 19 6 10 1011.9 1011.8 0.0
23/03:00pm 20.5 17.7 11.4 56 5.0 WNW 17 24 9 13 1012.9 1012.8 0.0
23/02:30pm 20.3 17.0 11.0 55 5.1 WNW 19 26 10 14 1013.0 1012.9 0.0
23/02:00pm 20.8 18.0 11.2 54 5.3 NW 17 26 9 14 1013.0 1012.9 0.0
23/01:30pm 20.6 17.5 10.4 52 5.5 NW 17 22 9 12 1013.0 1012.9 0.0
23/01:00pm 21.1 18.5 10.6 51 5.7 WNW 15 22 8 12 1012.7 1012.6 0.0
23/12:30pm 20.0 17.9 9.9 52 5.4 NNW 11 19 6 10 1012.6 1012.5 0.0
23/12:00pm 19.6 17.8 10.9 57 4.7 NNW 11 20 6 11 1012.7 1012.6 0.0
23/11:30am 20.0 17.9 11.2 57 4.8 WNW 13 19 7 10 1012.6 1012.5 0.0
23/11:00am 19.4 17.6 12.2 63 4.0 WSW 13 20 7 11 1012.6 1012.5 0.0
23/10:30am 18.9 16.9 11.5 62 4.1 W 13 20 7 11 1012.8 1012.7 0.0
23/10:00am 18.4 16.7 11.2 63 3.9 WNW 11 19 6 10 1012.9 1012.8 0.0
23/09:30am 18.5 16.7 10.8 61 4.2 WNW 11 15 6 8 1013.0 1012.9 0.0
23/09:00am 17.8 15.8 10.2 61 4.0 WNW 11 17 6 9 1013.0 1012.9 0.0
23/08:30am 17.4 16.1 11.4 68 3.3 NW 9 15 5 8 1013.0 1012.9 0.0
23/08:00am 16.8 15.6 11.7 72 2.8 NW 9 15 5 8 1012.9 1012.8 0.0
23/07:30am 15.8 15.3 12.7 82 1.7 WNW 7 13 4 7 1012.6 1012.5 0.0
23/07:00am 13.7 12.9 11.8 88 1.0 WNW 7 9 4 5 1012.3 1012.2 0.0
23/06:30am 12.5 11.7 10.9 90 0.8 WNW 6 7 3 4 1012.0 1011.9 0.0
23/06:00am 12.4 11.3 10.8 90 0.8 W 7 9 4 5 1011.8 1011.7 0.0
23/05:30am 12.1 11.5 10.5 90 0.8 WNW 4 6 2 3 1011.6 1011.5 0.0
23/05:00am 11.8 11.1 10.0 89 0.9 WNW 4 6 2 3 1011.6 1011.5 0.0
23/04:30am 11.4 10.5 9.1 86 1.1 WNW 4 4 2 2 1011.4 1011.3 0.0
23/04:00am 12.9 12.4 10.8 87 1.1 W 4 6 2 3 1011.4 1011.3 0.0
23/03:30am 12.6 11.6 10.3 86 1.2 W 6 6 3 3 1011.2 1011.1 0.0
23/03:00am 13.3 13.2 10.7 84 1.4 WSW 2 4 1 2 1011.3 1011.2 0.0
23/02:30am 13.4 12.4 10.9 85 1.3 W 7 9 4 5 1011.4 1011.3 0.0
23/02:00am 13.8 12.2 11.5 86 1.2 WSW 11 15 6 8 1011.4 1011.3 0.0
23/01:30am 13.5 11.4 11.0 85 1.3 WSW 13 15 7 8 1011.4 1011.3 0.0
23/01:00am 14.0 12.8 11.7 86 1.2 WSW 9 13 5 7 1011.7 1011.6 0.0
23/12:30am 14.5 13.0 12.0 85 1.4 WSW 11 13 6 7 1011.9 1011.8 0.0
23/12:00am 14.7 13.3 12.2 85 1.4 WSW 11 15 6 8 1011.9 1011.8 0.0
 
Date/Time
CDT
Temp
°C
App
Temp
°C
Dew
Point
Rel
Hum
%
Delta-T
°C
Wind Press
QNH
hPa
Press
MSL
hPa
Rain
since 9 am
mm
Dir
 
Spd
km/h
Gust
km/h
Spd
kts
Gust
kts
22/11:30pm 14.9 13.7 12.8 87 1.2 WSW 11 15 6 8 1011.9 1011.8 0.0
22/11:00pm 13.8 12.7 11.8 88 1.1 WSW 9 13 5 7 1011.8 1011.7 0.0
22/10:30pm 14.1 13.0 12.0 87 1.1 WSW 9 13 5 7 1011.6 1011.5 0.0
22/10:00pm 15.3 14.9 13.0 86 1.3 WSW 7 11 4 6 1011.4 1011.3 0.0
22/09:30pm 15.7 14.2 13.0 84 1.5 WSW 13 19 7 10 1010.9 1010.8 0.0
22/09:00pm 16.0 14.1 12.9 82 1.7 SW 15 20 8 11 1010.5 1010.4 0.0
22/08:30pm 16.3 14.2 13.6 84 1.5 SW 17 26 9 14 1010.1 1010.0 0.0
22/08:00pm 16.5 14.3 13.2 81 1.8 SW 17 22 9 12 1009.6 1009.5 0.0
22/07:30pm 17.3 14.5 13.2 77 2.3 SW 20 26 11 14 1008.9 1008.8 0.0
22/07:00pm 17.9 14.3 13.2 74 2.6 SW 24 30 13 16 1008.3 1008.2 0.0
22/06:30pm 18.5 14.4 13.8 74 2.7 SW 28 32 15 17 1007.8 1007.7 0.0
22/06:00pm 18.9 14.9 14.0 73 2.8 SW 28 35 15 19 1007.6 1007.5 0.0
22/05:30pm 19.1 14.7 14.1 73 2.9 SW 30 37 16 20 1007.4 1007.3 0.0
22/05:00pm 19.7 15.8 14.3 71 3.1 WSW 28 35 15 19 1007.0 1006.9 0.0
22/04:30pm 20.3 16.7 14.2 68 3.5 W 26 33 14 18 1006.8 1006.7 0.0
22/04:00pm 21.8 17.8 14.2 62 4.4 W 28 37 15 20 1006.7 1006.6 0.0
22/03:30pm 24.2 18.6 11.5 45 7.2 WNW 32 39 17 21 1006.4 1006.3 0.0
22/03:00pm 23.7 19.8 12.0 48 6.7 WNW 24 33 13 18 1006.5 1006.4 0.0
22/02:30pm 23.7 19.3 14.1 55 5.7 WNW 30 37 16 20 1006.5 1006.4 0.0
22/02:00pm 23.7 19.4 14.4 56 5.5 WNW 30 41 16 22 1006.0 1005.9 0.0
22/01:30pm 23.7 18.6 13.6 53 5.9 NW 33 44 18 24 1006.1 1006.0 0.0
22/01:00pm 24.4 20.3 13.9 52 6.2 NW 28 43 15 23 1006.0 1005.9 0.0
22/12:30pm 23.4 18.7 13.3 53 5.9 NNW 30 39 16 21 1006.3 1006.2 0.0
22/12:00pm 23.4 19.4 13.0 52 6.0 N 26 37 14 20 1006.4 1006.3 0.0
22/11:30am 22.8 17.3 11.8 50 6.2 N 32 41 17 22 1006.6 1006.5 0.0
22/11:00am 22.2 15.6 11.3 50 6.1 N 37 48 20 26 1006.4 1006.3 0.0
22/10:30am 23.0 16.6 10.8 46 6.8 N 35 46 19 25 1006.2 1006.1 0.0
22/10:00am 22.0 15.6 9.5 45 6.7 N 33 44 18 24 1006.2 1006.1 0.0
22/09:30am 21.4 14.9 8.0 42 7.0 NNE 32 44 17 24 1006.5 1006.4 0.0
22/09:00am 20.0 14.5 7.4 44 6.5 NE 26 39 14 21 1006.6 1006.5 0.2
22/08:30am 17.5 12.9 8.1 54 4.8 ENE 22 30 12 16 1006.6 1006.5 0.2
22/08:00am 15.2 11.0 8.2 63 3.5 ENE 20 26 11 14 1006.6 1006.5 0.2
22/07:30am 13.9 9.1 7.4 65 3.2 ENE 22 24 12 13 1007.2 1007.1 0.2
22/07:00am 14.4 12.4 7.2 62 3.5 E 7 11 4 6 1008.6 1008.5 0.0
22/06:56am 14.8 12.6 6.1 56 4.2 ESE 7 9 4 5 1008.9 1008.8 0.0
22/06:30am 14.6 10.0 5.7 55 4.2 ENE 19 26 10 14 1006.9 1006.8 0.0
22/06:00am 14.8 10.1 5.9 55 4.3 E 20 26 11 14 1006.3 1006.2 0.0
22/05:30am 14.7 11.0 6.3 57 4.1 E 15 20 8 11 1006.9 1006.8 0.0
22/05:00am 14.4 11.3 7.2 62 3.5 ESE 13 20 7 11 1006.9 1006.8 0.0
22/04:30am 14.6 11.9 7.4 62 3.6 SE 11 15 6 8 1007.8 1007.7 0.0
22/04:00am 15.0 13.0 7.3 60 3.8 S 7 11 4 6 1008.4 1008.3 0.0
22/03:30am 15.2 12.9 7.3 59 3.9 S 9 13 5 7 1008.1 1008.0 0.0
22/03:00am 14.8 12.6 6.4 57 4.1 E 7 11 4 6 1007.8 1007.7 0.0
22/02:30am 16.5 14.0 8.0 57 4.3 SE 11 15 6 8 1007.8 1007.7 0.0
22/02:00am 16.8 10.6 7.7 55 4.6 SSW 30 43 16 23 1009.1 1009.0 0.0
22/01:58am 15.6 9.3 5.8 52 4.7 SSW 28 43 15 23 1008.9 1008.8 0.0
22/01:30am 13.4 9.2 5.8 60 3.6 ENE 17 20 9 11 1007.0 1006.9 0.0
22/01:00am 13.1 8.3 5.8 61 3.4 NE 20 24 11 13 1007.6 1007.5 0.0
22/12:30am 13.0 8.0 6.6 65 3.1 ENE 22 24 12 13 1008.1 1008.0 0.0
22/12:00am 12.9 8.7 7.4 69 2.7 ENE 19 20 10 11 1008.9 1008.8 0.0
 
Date/Time
CDT
Temp
°C
App
Temp
°C
Dew
Point
Rel
Hum
%
Delta-T
°C
Wind Press
QNH
hPa
Press
MSL
hPa
Rain
since 9 am
mm
Dir
 
Spd
km/h
Gust
km/h
Spd
kts
Gust
kts
21/11:30pm 12.8 10.0 8.5 75 2.1 ENE 13 15 7 8 1009.8 1009.7 0.0
21/11:00pm 13.3 10.1 8.6 73 2.4 ENE 15 19 8 10 1010.3 1010.2 0.0
21/10:30pm 13.4 10.4 9.3 76 2.1 ENE 15 17 8 9 1010.9 1010.8 0.0
21/10:00pm 13.9 11.3 9.5 75 2.3 ENE 13 13 7 7 1011.2 1011.1 0.0
21/09:30pm 14.1 12.0 9.9 76 2.2 NE 11 13 6 7 1011.2 1011.1 0.0
21/09:00pm 14.5 12.5 10.1 75 2.3 NE 11 11 6 6 1011.2 1011.1 0.0
21/08:30pm 15.0 13.3 10.0 72 2.6 NE 9 9 5 5 1011.3 1011.2 0.0
21/08:00pm 15.7 14.4 10.0 69 3.0 NE 7 9 4 5 1011.1 1011.0 0.0
21/07:30pm 16.6 15.5 9.8 64 3.6 NNE 6 7 3 4 1011.0 1010.9 0.0
21/07:00pm 17.1 16.0 10.0 63 3.7 N 6 7 3 4 1011.1 1011.0 0.0
21/06:30pm 17.2 15.9 10.1 63 3.8 N 7 11 4 6 1011.0 1010.9 0.0
21/06:00pm 17.5 15.6 9.2 58 4.3 NNW 9 13 5 7 1010.9 1010.8 0.0
21/05:30pm 18.1 16.1 10.0 59 4.3 NNW 11 20 6 11 1010.9 1010.8 0.0
21/05:00pm 18.6 15.7 9.7 56 4.7 NNW 15 20 8 11 1011.3 1011.2 0.0
21/04:30pm 19.2 16.2 10.7 58 4.6 NNW 17 22 9 12 1011.4 1011.3 0.0
21/04:00pm 18.1 14.5 10.5 61 4.1 NW 20 33 11 18 1011.6 1011.5 0.0
21/03:30pm 19.0 14.9 10.0 56 4.8 NW 22 30 12 16 1012.0 1011.9 0.0
21/03:00pm 18.3 14.4 9.6 57 4.6 NW 20 32 11 17 1011.9 1011.8 0.0
21/02:30pm 18.3 14.4 9.4 56 4.7 NW 20 30 11 16 1012.1 1012.0 0.0
21/02:00pm 18.1 14.1 8.9 55 4.8 WNW 20 30 11 16 1012.3 1012.2 0.0
21/01:30pm 18.5 14.6 9.3 55 4.8 NW 20 30 11 16 1012.6 1012.5 0.0
21/01:00pm 18.7 14.8 9.5 55 4.9 NW 20 32 11 17 1012.7 1012.6 0.0
21/12:30pm 18.3 14.8 10.2 59 4.3 WNW 19 30 10 16 1012.7 1012.6 0.0
21/12:00pm 17.9 14.2 10.0 60 4.2 WNW 20 30 11 16 1012.8 1012.7 0.0
21/11:30am 18.4 14.6 11.0 62 4.0 NNW 22 26 12 14 1012.8 1012.7 0.0
21/11:00am 18.6 15.4 11.4 63 3.9 NNW 19 28 10 15 1012.7 1012.6 0.0
21/10:30am 17.7 14.6 8.8 56 4.6 NNW 15 24 8 13 1012.6 1012.5 0.0
21/10:00am 17.0 13.6 7.6 54 4.7 WNW 15 22 8 12 1012.4 1012.3 0.0
21/09:30am 17.5 15.1 9.9 61 4.0 WNW 13 20 7 11 1012.6 1012.5 0.0
21/09:00am 17.0 13.3 9.4 61 4.0 WNW 19 24 10 13 1012.6 1012.5 4.6
21/08:30am 16.1 12.9 10.0 67 3.2 W 17 22 9 12 1012.5 1012.4 4.6
21/08:00am 15.6 13.1 9.7 68 3.1 W 13 17 7 9 1012.2 1012.1 4.6
21/07:30am 15.0 13.8 9.6 70 2.8 W 6 9 3 5 1012.0 1011.9 4.6
21/07:00am 14.0 13.0 9.0 72 2.5 W 4 4 2 2 1011.5 1011.4 4.6
21/06:30am 13.1 11.9 8.2 72 2.4 W 4 4 2 2 1011.1 1011.0 4.6
21/06:00am 12.9 11.7 8.0 72 2.4 WNW 4 4 2 2 1010.8 1010.7 4.6
21/05:30am 13.7 11.6 8.1 69 2.8 WSW 9 13 5 7 1010.7 1010.6 4.6
21/05:00am 14.0 11.5 8.2 68 2.9 WSW 11 15 6 8 1010.8 1010.7 4.6
21/04:30am 13.9 10.7 8.3 69 2.8 WSW 15 20 8 11 1010.8 1010.7 4.6
21/04:00am 12.6 10.2 8.5 76 2.0 WSW 11 17 6 9 1010.6 1010.5 4.6
21/03:30am 12.9 10.4 8.2 73 2.3 SW 11 19 6 10 1010.2 1010.1 4.6
21/03:00am 13.3 9.7 8.2 71 2.5 SW 17 22 9 12 1009.9 1009.8 4.6
21/02:30am 14.0 11.0 9.2 73 2.4 SW 15 24 8 13 1009.9 1009.8 4.6
21/02:00am 14.2 9.9 9.4 73 2.5 SW 22 26 12 14 1010.1 1010.0 4.6
21/01:30am 14.4 10.7 9.6 73 2.5 SW 19 26 10 14 1010.4 1010.3 4.6
21/01:00am 14.2 10.0 9.8 75 2.3 SW 22 30 12 16 1010.4 1010.3 4.6
21/12:30am 14.4 10.8 10.4 77 2.1 SW 20 28 11 15 1010.4 1010.3 4.6
21/12:00am 14.4 10.9 10.8 79 1.9 SW 20 28 11 15 1010.4 1010.3 4.6
 
Date/Time
CDT
Temp
°C
App
Temp
°C
Dew
Point
Rel
Hum
%
Delta-T
°C
Wind Press
QNH
hPa
Press
MSL
hPa
Rain
since 9 am
mm
Dir
 
Spd
km/h
Gust
km/h
Spd
kts
Gust
kts
20/11:30pm 14.5 10.4 10.1 75 2.3 SW 22 32 12 17 1010.3 1010.2 4.6
20/11:00pm 14.9 10.8 11.5 80 1.8 SW 24 33 13 18 1010.2 1010.1 4.6
20/10:30pm 14.4 10.5 12.1 86 1.2 SW 24 32 13 17 1010.1 1010.0 4.6
20/10:00pm 14.6 10.1 12.6 88 1.1 SW 28 39 15 21 1009.8 1009.7 4.6
20/09:30pm 14.6 10.2 13.0 90 0.9 SW 28 37 15 20 1009.3 1009.2 4.6
20/09:00pm 15.6 12.8 13.3 86 1.3 WSW 20 32 11 17 1008.5 1008.4 4.6

Other Formats:

Comma delimited format used in spreadsheet applications
http://www.bom.gov.au/fwo/IDS60801/IDS60801.94813.axf

JavaScript Object Notation format (JSON) in row-major order
http://www.bom.gov.au/fwo/IDS60801/IDS60801.94813.json